Time;durP1;ratioP1;P1;durP2;ratioP2;P2;SDS_P1;SDS_P2;PMS_P1;PMS_P2;Temp;Humidity;BMP_temperature;BMP_pressure;BME280_temperature;BME280_humidity;BME280_pressure;Samples;Min_cycle;Max_cycle;Signal;HPM_P1;HPM_P2
2023/08/22 00:01:07;;;;;;;10.38;4.50;;;;;;;;;;5028703;28;20021;-74
2023/08/22 00:03:33;;;;;;;13.25;4.68;;;;;;;;;;5030754;28;20025;-74
2023/08/22 00:05:59;;;;;;;12.40;4.80;;;;;;;;;;5031222;28;20428;-73
2023/08/22 00:08:25;;;;;;;11.05;4.80;;;;;;;;;;5031217;28;20033;-74
2023/08/22 00:10:51;;;;;;;9.57;4.53;;;;;;;;;;5031717;28;20025;-73
2023/08/22 00:13:17;;;;;;;12.18;4.80;;;;;;;;;;5031145;28;20029;-73
2023/08/22 00:15:43;;;;;;;10.38;4.38;;;;;;;;;;5031582;28;20067;-74
2023/08/22 00:18:09;;;;;;;10.55;4.57;;;;;;;;;;5031337;28;20025;-74
2023/08/22 00:20:36;;;;;;;9.68;4.53;;;;;;;;;;5031397;28;20018;-74
2023/08/22 00:23:03;;;;;;;8.50;4.35;;;;;;;;;;5031086;28;20025;-74
2023/08/22 00:25:29;;;;;;;9.13;4.60;;;;;;;;;;5031591;28;20033;-73
2023/08/22 00:27:55;;;;;;;10.60;4.47;;;;;;;;;;5031286;28;20021;-74
2023/08/22 00:30:21;;;;;;;12.13;4.35;;;;;;;;;;5031480;28;20455;-75
2023/08/22 00:32:47;;;;;;;13.27;4.82;;;;;;;;;;5031059;28;20056;-73
2023/08/22 00:35:13;;;;;;;11.80;4.30;;;;;;;;;;5031453;28;20045;-73
2023/08/22 00:37:39;;;;;;;16.80;4.55;;;;;;;;;;5031426;28;20033;-73
2023/08/22 00:40:06;;;;;;;9.13;3.92;;;;;;;;;;5031335;28;20396;-74
2023/08/22 00:42:33;;;;;;;11.68;4.20;;;;;;;;;;5031156;28;20033;-74
2023/08/22 00:44:59;;;;;;;13.38;4.40;;;;;;;;;;5031131;28;20029;-74
2023/08/22 00:47:25;;;;;;;7.95;4.07;;;;;;;;;;5031060;28;20372;-74
2023/08/22 00:49:51;;;;;;;12.63;4.30;;;;;;;;;;5033669;28;20079;-74
2023/08/22 00:52:17;;;;;;;9.18;3.95;;;;;;;;;;5035306;28;20028;-74
2023/08/22 00:54:43;;;;;;;12.93;4.45;;;;;;;;;;5034866;28;20056;-74
2023/08/22 00:57:09;;;;;;;12.98;4.22;;;;;;;;;;5035961;28;20407;-74
2023/08/22 00:59:35;;;;;;;10.48;4.47;;;;;;;;;;5035793;28;20025;-75
2023/08/22 01:02:02;;;;;;;9.52;4.10;;;;;;;;;;5036184;28;20037;-74
2023/08/22 01:04:28;;;;;;;9.35;4.00;;;;;;;;;;5035827;28;20025;-73
2023/08/22 01:06:57;;;;;;;15.95;4.47;;;;;;;;;;5034601;28;20030;-74
2023/08/22 01:09:28;;;;;;;9.02;3.78;;;;;;;;;;5034812;28;20021;-75
2023/08/22 01:11:58;;;;;;;11.07;3.95;;;;;;;;;;5036161;28;20022;-75
2023/08/22 01:14:25;;;;;;;12.70;4.05;;;;;;;;;;5035646;28;20029;-74
2023/08/22 01:16:52;;;;;;;15.05;4.25;;;;;;;;;;5034327;28;20025;-73
2023/08/22 01:19:18;;;;;;;12.93;4.22;;;;;;;;;;5034477;28;20116;-74
2023/08/22 01:21:51;;;;;;;11.80;3.80;;;;;;;;;;5033948;28;20022;-74
2023/08/22 01:24:17;;;;;;;10.60;3.83;;;;;;;;;;5034557;28;20030;-74
2023/08/22 01:26:44;;;;;;;11.18;4.40;;;;;;;;;;5033908;28;20029;-74
2023/08/22 01:29:11;;;;;;;13.98;4.22;;;;;;;;;;5034005;28;20025;-74
2023/08/22 01:31:41;;;;;;;12.40;4.30;;;;;;;;;;5034035;28;20464;-74
2023/08/22 01:34:12;;;;;;;13.43;4.53;;;;;;;;;;5034070;28;20045;-73
2023/08/22 01:36:38;;;;;;;11.50;4.32;;;;;;;;;;5034722;28;20033;-75
2023/08/22 01:39:07;;;;;;;8.15;4.10;;;;;;;;;;5035638;28;20021;-75
2023/08/22 01:41:33;;;;;;;13.20;3.83;;;;;;;;;;5035179;28;20082;-75
2023/08/22 01:44:00;;;;;;;9.48;4.07;;;;;;;;;;5034861;28;20033;-74
2023/08/22 01:46:26;;;;;;;8.57;3.90;;;;;;;;;;5033579;28;20387;-75
2023/08/22 01:48:52;;;;;;;6.63;3.50;;;;;;;;;;5034865;28;20025;-76
2023/08/22 01:51:18;;;;;;;15.30;4.32;;;;;;;;;;5036443;28;20029;-74
2023/08/22 01:53:44;;;;;;;13.45;4.13;;;;;;;;;;5036597;28;20110;-75
2023/08/22 01:56:10;;;;;;;11.65;3.85;;;;;;;;;;5035175;28;20061;-76
2023/08/22 01:58:36;;;;;;;8.50;3.70;;;;;;;;;;5037082;28;20036;-73
2023/08/22 02:01:12;;;;;;;11.50;4.20;;;;;;;;;;5036148;28;20030;-75
2023/08/22 02:03:42;;;;;;;13.10;3.67;;;;;;;;;;5037005;28;20029;-73
2023/08/22 02:06:08;;;;;;;9.38;4.10;;;;;;;;;;5037337;28;20531;-75
2023/08/22 02:08:34;;;;;;;12.68;4.43;;;;;;;;;;5035600;28;20096;-74
2023/08/22 02:11:00;;;;;;;12.43;3.97;;;;;;;;;;5035088;28;20025;-76
2023/08/22 02:13:26;;;;;;;10.43;4.10;;;;;;;;;;5035017;28;20041;-73
2023/08/22 02:15:52;;;;;;;12.65;3.95;;;;;;;;;;5034900;28;20467;-75
2023/08/22 02:18:18;;;;;;;9.68;3.70;;;;;;;;;;5035467;28;20075;-74
2023/08/22 02:20:44;;;;;;;10.77;4.00;;;;;;;;;;5036253;28;20025;-75
2023/08/22 02:23:10;;;;;;;12.50;3.92;;;;;;;;;;5035399;28;20040;-74
2023/08/22 02:25:36;;;;;;;11.20;4.05;;;;;;;;;;5033085;28;20025;-74
2023/08/22 02:28:03;;;;;;;12.00;3.58;;;;;;;;;;5032843;28;20026;-74
2023/08/22 02:30:29;;;;;;;10.80;3.92;;;;;;;;;;5034880;28;20035;-75
2023/08/22 02:32:55;;;;;;;10.43;4.03;;;;;;;;;;5033039;28;20476;-73
2023/08/22 02:35:21;;;;;;;11.55;3.75;;;;;;;;;;5032715;28;20101;-74
2023/08/22 02:37:47;;;;;;;11.38;4.28;;;;;;;;;;5033084;28;20033;-73
2023/08/22 02:40:13;;;;;;;13.27;3.88;;;;;;;;;;5032877;28;20018;-73
2023/08/22 02:42:40;;;;;;;9.18;4.00;;;;;;;;;;5032528;28;20108;-73
2023/08/22 02:45:06;;;;;;;10.10;3.70;;;;;;;;;;5032776;28;20018;-73
2023/08/22 02:47:32;;;;;;;20.60;8.48;;;;;;;;;;5032616;28;20029;-74
2023/08/22 02:49:58;;;;;;;24.70;11.25;;;;;;;;;;5032698;28;20032;-73
2023/08/22 02:52:24;;;;;;;15.60;5.72;;;;;;;;;;5032516;28;20079;-73
2023/08/22 02:54:51;;;;;;;14.98;6.13;;;;;;;;;;5032446;28;20029;-73
2023/08/22 02:57:17;;;;;;;13.00;5.68;;;;;;;;;;5032503;28;20030;-73
2023/08/22 02:59:43;;;;;;;12.60;4.28;;;;;;;;;;5032518;28;20072;-74
2023/08/22 03:02:09;;;;;;;13.65;4.38;;;;;;;;;;5034004;28;20029;-75
2023/08/22 03:04:37;;;;;;;11.57;3.63;;;;;;;;;;5032411;28;20113;-75
2023/08/22 03:07:04;;;;;;;10.07;3.92;;;;;;;;;;5033258;28;20037;-75
2023/08/22 03:09:30;;;;;;;7.97;3.75;;;;;;;;;;5032791;28;20049;-74
2023/08/22 03:11:56;;;;;;;9.35;3.67;;;;;;;;;;5031639;28;20441;-75
2023/08/22 03:14:22;;;;;;;9.23;3.85;;;;;;;;;;5031610;28;20482;-75
2023/08/22 03:16:48;;;;;;;9.07;3.88;;;;;;;;;;5032113;28;20045;-74
2023/08/22 03:19:14;;;;;;;9.68;3.97;;;;;;;;;;5032379;28;20021;-74
2023/08/22 03:21:40;;;;;;;13.63;3.75;;;;;;;;;;5031988;28;20395;-74
2023/08/22 03:24:06;;;;;;;12.82;3.58;;;;;;;;;;5031897;28;20108;-74
2023/08/22 03:26:32;;;;;;;11.07;3.55;;;;;;;;;;5032223;28;20052;-75
2023/08/22 03:28:58;;;;;;;9.43;3.05;;;;;;;;;;5032249;28;20053;-73
2023/08/22 03:31:26;;;;;;;7.88;3.30;;;;;;;;;;5032191;28;20021;-73
2023/08/22 03:33:52;;;;;;;12.77;3.30;;;;;;;;;;5032355;28;20029;-74
2023/08/22 03:36:18;;;;;;;7.80;3.10;;;;;;;;;;5041856;28;20029;-73
2023/08/22 03:38:46;;;;;;;14.45;3.95;;;;;;;;;;5048584;28;20021;-74
2023/08/22 03:41:12;;;;;;;11.15;3.33;;;;;;;;;;5049155;28;20081;-75
2023/08/22 03:43:38;;;;;;;8.57;3.40;;;;;;;;;;5052384;28;20021;-76
2023/08/22 03:46:04;;;;;;;8.75;3.25;;;;;;;;;;5055647;28;20045;-76
2023/08/22 03:48:31;;;;;;;8.65;3.20;;;;;;;;;;5050750;28;20029;-75
2023/08/22 03:50:57;;;;;;;6.95;3.13;;;;;;;;;;5032153;28;20033;-74
2023/08/22 03:53:23;;;;;;;14.05;3.50;;;;;;;;;;5031239;28;20037;-75
2023/08/22 03:55:49;;;;;;;7.32;2.72;;;;;;;;;;5031966;28;20084;-76
2023/08/22 03:58:15;;;;;;;8.50;3.45;;;;;;;;;;5032033;28;20037;-74
2023/08/22 04:00:41;;;;;;;10.80;3.30;;;;;;;;;;5031617;28;20376;-75
2023/08/22 04:03:07;;;;;;;6.80;3.30;;;;;;;;;;5031122;28;20032;-74
2023/08/22 04:05:33;;;;;;;12.23;3.58;;;;;;;;;;5032368;28;20029;-75
2023/08/22 04:07:59;;;;;;;6.70;3.10;;;;;;;;;;5032222;28;20032;-75
2023/08/22 04:10:25;;;;;;;12.40;3.22;;;;;;;;;;5032801;28;20030;-76
2023/08/22 04:12:51;;;;;;;9.40;2.70;;;;;;;;;;5032077;28;20105;-75
2023/08/22 04:15:17;;;;;;;8.05;2.70;;;;;;;;;;5031618;28;20029;-76
2023/08/22 04:17:43;;;;;;;9.60;2.85;;;;;;;;;;5031727;28;20080;-75
2023/08/22 04:20:10;;;;;;;7.70;2.40;;;;;;;;;;5032283;28;20109;-75
2023/08/22 04:22:36;;;;;;;10.20;3.33;;;;;;;;;;5031081;28;20069;-80
2023/08/22 04:25:04;;;;;;;7.95;2.90;;;;;;;;;;5034914;28;20029;-76
2023/08/22 04:27:30;;;;;;;10.85;3.08;;;;;;;;;;5035658;28;20025;-76
2023/08/22 04:29:56;;;;;;;6.65;2.80;;;;;;;;;;5037066;28;20024;-75
2023/08/22 04:32:22;;;;;;;6.53;2.85;;;;;;;;;;5036237;28;20026;-74
2023/08/22 04:34:48;;;;;;;6.20;2.15;;;;;;;;;;5035155;28;20030;-75
2023/08/22 04:37:14;;;;;;;9.73;2.85;;;;;;;;;;5035104;28;20022;-75
2023/08/22 04:39:40;;;;;;;8.18;3.05;;;;;;;;;;5035104;28;20498;-75
2023/08/22 04:42:06;;;;;;;8.27;3.53;;;;;;;;;;5033230;28;20116;-75
2023/08/22 04:44:32;;;;;;;10.77;3.25;;;;;;;;;;5036405;28;20029;-77
2023/08/22 04:46:58;;;;;;;7.90;2.95;;;;;;;;;;5036612;28;20034;-74
2023/08/22 04:49:24;;;;;;;7.80;2.97;;;;;;;;;;5035130;28;20498;-76
2023/08/22 04:51:50;;;;;;;8.55;3.10;;;;;;;;;;5034506;28;20464;-74
2023/08/22 04:54:16;;;;;;;9.85;2.70;;;;;;;;;;5034851;28;20486;-75
2023/08/22 04:56:42;;;;;;;9.93;3.38;;;;;;;;;;5035364;28;20029;-75
2023/08/22 04:59:08;;;;;;;6.63;2.60;;;;;;;;;;5034903;28;20459;-74
2023/08/22 05:01:34;;;;;;;8.27;2.70;;;;;;;;;;5034640;28;20018;-75
2023/08/22 05:04:00;;;;;;;5.90;2.55;;;;;;;;;;5034686;28;20061;-74
2023/08/22 05:06:26;;;;;;;8.82;2.75;;;;;;;;;;5034785;28;20054;-75
2023/08/22 05:08:52;;;;;;;6.97;2.55;;;;;;;;;;5034545;28;20387;-74
2023/08/22 05:11:18;;;;;;;6.88;2.75;;;;;;;;;;5034507;28;20109;-74
2023/08/22 05:13:44;;;;;;;9.55;3.08;;;;;;;;;;5034260;28;20033;-73
2023/08/22 05:16:10;;;;;;;4.13;2.53;;;;;;;;;;5034338;28;20079;-73
2023/08/22 05:18:36;;;;;;;10.45;2.95;;;;;;;;;;5034546;28;20057;-72
2023/08/22 05:21:02;;;;;;;9.32;2.88;;;;;;;;;;5031267;28;20108;-74
2023/08/22 05:23:28;;;;;;;6.60;2.92;;;;;;;;;;5036995;28;20548;-75
2023/08/22 05:25:54;;;;;;;6.13;2.50;;;;;;;;;;5034975;28;20030;-75
2023/08/22 05:28:20;;;;;;;9.15;2.92;;;;;;;;;;5037256;28;20028;-76
2023/08/22 05:30:46;;;;;;;8.15;2.78;;;;;;;;;;5032809;28;20056;-77
2023/08/22 05:33:12;;;;;;;8.18;2.88;;;;;;;;;;5028426;28;20408;-74
2023/08/22 05:35:38;;;;;;;7.15;3.03;;;;;;;;;;5032375;28;20025;-74
2023/08/22 05:38:05;;;;;;;12.85;2.88;;;;;;;;;;5032182;28;20483;-75
2023/08/22 05:40:31;;;;;;;6.53;2.80;;;;;;;;;;5036072;28;20041;-75
2023/08/22 05:42:57;;;;;;;9.20;2.97;;;;;;;;;;5035939;28;20088;-75
2023/08/22 05:45:23;;;;;;;8.90;2.67;;;;;;;;;;5037319;28;20432;-76
2023/08/22 05:47:49;;;;;;;8.07;3.05;;;;;;;;;;5033320;28;20071;-74
2023/08/22 05:50:15;;;;;;;8.32;3.30;;;;;;;;;;5033693;28;20029;-74
2023/08/22 05:52:41;;;;;;;11.65;2.80;;;;;;;;;;5036194;28;20057;-73
2023/08/22 05:55:07;;;;;;;11.38;3.35;;;;;;;;;;5032558;28;20105;-74
2023/08/22 05:57:33;;;;;;;6.65;3.00;;;;;;;;;;5035234;28;20026;-74
2023/08/22 05:59:59;;;;;;;10.65;3.17;;;;;;;;;;5037065;28;20360;-75
2023/08/22 06:02:25;;;;;;;11.40;2.80;;;;;;;;;;5031798;28;20395;-75
2023/08/22 06:04:51;;;;;;;10.07;2.58;;;;;;;;;;5033737;28;20022;-76
2023/08/22 06:07:17;;;;;;;7.25;2.95;;;;;;;;;;5033726;28;20056;-74
2023/08/22 06:09:44;;;;;;;7.30;3.10;;;;;;;;;;5034221;28;20033;-75
2023/08/22 06:12:11;;;;;;;13.07;2.90;;;;;;;;;;5032071;28;20122;-74
2023/08/22 06:14:37;;;;;;;10.68;2.70;;;;;;;;;;5032579;28;20102;-72
2023/08/22 06:17:03;;;;;;;12.10;3.75;;;;;;;;;;5033151;28;20053;-72
2023/08/22 06:19:29;;;;;;;10.50;2.88;;;;;;;;;;5032889;28;20041;-72
2023/08/22 06:21:55;;;;;;;12.88;3.42;;;;;;;;;;5033690;28;20037;-75
2023/08/22 06:24:21;;;;;;;9.18;2.88;;;;;;;;;;5033481;28;20025;-75
2023/08/22 06:26:48;;;;;;;9.48;2.70;;;;;;;;;;5033188;28;20052;-74
2023/08/22 06:29:15;;;;;;;12.88;3.25;;;;;;;;;;5033601;28;20021;-74
2023/08/22 06:31:41;;;;;;;13.50;4.15;;;;;;;;;;5033053;28;20084;-74
2023/08/22 06:34:07;;;;;;;16.88;3.05;;;;;;;;;;5032268;28;20022;-74
2023/08/22 06:36:33;;;;;;;9.55;2.83;;;;;;;;;;5032717;28;20033;-74
2023/08/22 06:38:59;;;;;;;13.30;4.50;;;;;;;;;;5033157;28;20117;-76
2023/08/22 06:41:25;;;;;;;14.23;3.47;;;;;;;;;;5032820;28;20025;-76
2023/08/22 06:43:51;;;;;;;15.50;3.70;;;;;;;;;;5032206;28;20498;-76
2023/08/22 06:46:20;;;;;;;11.50;3.78;;;;;;;;;;5033332;28;20075;-75
2023/08/22 06:48:46;;;;;;;22.23;6.75;;;;;;;;;;5032945;28;20013;-75
2023/08/22 06:51:12;;;;;;;21.13;7.35;;;;;;;;;;5032507;28;20028;-75
2023/08/22 06:53:38;;;;;;;20.88;6.55;;;;;;;;;;5032227;28;20108;-73
2023/08/22 06:56:04;;;;;;;17.25;6.68;;;;;;;;;;5033256;28;20026;-73
2023/08/22 06:58:30;;;;;;;26.88;11.85;;;;;;;;;;5034394;28;20113;-75
2023/08/22 07:00:56;;;;;;;33.65;11.93;;;;;;;;;;5033838;28;20024;-74
2023/08/22 07:03:22;;;;;;;21.95;7.47;;;;;;;;;;5031256;28;20376;-74
2023/08/22 07:05:52;;;;;;;25.83;8.18;;;;;;;;;;5031642;28;20061;-75
2023/08/22 07:08:19;;;;;;;21.92;7.47;;;;;;;;;;5031903;28;20083;-75
2023/08/22 07:10:45;;;;;;;17.27;6.68;;;;;;;;;;5031879;28;20088;-74
2023/08/22 07:13:11;;;;;;;42.25;15.13;;;;;;;;;;5031256;28;20037;-73
2023/08/22 07:15:37;;;;;;;22.50;9.63;;;;;;;;;;5032546;28;20079;-75
2023/08/22 07:18:03;;;;;;;44.80;18.65;;;;;;;;;;5031985;28;20029;-75
2023/08/22 07:20:29;;;;;;;40.10;15.43;;;;;;;;;;5030962;28;20034;-76
2023/08/22 07:22:55;;;;;;;30.13;10.10;;;;;;;;;;5031866;28;20022;-75
2023/08/22 07:25:21;;;;;;;17.98;5.13;;;;;;;;;;5031749;28;20112;-73
2023/08/22 07:27:47;;;;;;;21.92;11.00;;;;;;;;;;5031638;28;20028;-73
2023/08/22 07:30:13;;;;;;;32.45;14.85;;;;;;;;;;5031566;28;20045;-74
2023/08/22 07:32:39;;;;;;;15.70;6.55;;;;;;;;;;5031708;28;20022;-75
2023/08/22 07:35:05;;;;;;;9.50;3.05;;;;;;;;;;5032097;28;20423;-75
2023/08/22 07:37:31;;;;;;;19.13;9.55;;;;;;;;;;5031914;28;20075;-75
2023/08/22 07:39:57;;;;;;;14.40;7.93;;;;;;;;;;5032019;28;20025;-74
2023/08/22 07:42:23;;;;;;;11.40;3.20;;;;;;;;;;5031435;28;20030;-74
2023/08/22 07:44:49;;;;;;;7.45;3.10;;;;;;;;;;5033356;28;20080;-75
2023/08/22 07:47:15;;;;;;;9.65;2.30;;;;;;;;;;5032825;28;20377;-75
2023/08/22 07:49:41;;;;;;;10.13;4.65;;;;;;;;;;5031888;28;20029;-75
2023/08/22 07:52:08;;;;;;;8.55;1.85;;;;;;;;;;5031348;28;20110;-76
2023/08/22 07:54:34;;;;;;;8.57;1.85;;;;;;;;;;5031767;28;20018;-75
2023/08/22 07:57:00;;;;;;;7.22;2.00;;;;;;;;;;5031723;28;20029;-75
2023/08/22 07:59:26;;;;;;;4.53;1.70;;;;;;;;;;5033701;28;20483;-75
2023/08/22 08:01:53;;;;;;;7.70;1.83;;;;;;;;;;5035627;28;20040;-76
2023/08/22 08:04:19;;;;;;;10.93;2.47;;;;;;;;;;5035889;28;20043;-76
2023/08/22 08:06:46;;;;;;;4.57;1.75;;;;;;;;;;5036225;28;20167;-75
2023/08/22 08:09:13;;;;;;;5.07;2.03;;;;;;;;;;5036371;28;20017;-76
2023/08/22 08:11:39;;;;;;;7.85;2.00;;;;;;;;;;5036199;28;20056;-75
2023/08/22 08:14:05;;;;;;;5.50;1.58;;;;;;;;;;5035399;28;20037;-74
2023/08/22 08:16:32;;;;;;;10.80;1.80;;;;;;;;;;5039551;28;20458;-76
2023/08/22 08:18:58;;;;;;;8.75;1.90;;;;;;;;;;5038226;28;20529;-75
2023/08/22 08:21:24;;;;;;;7.18;1.92;;;;;;;;;;5037916;28;20037;-74
2023/08/22 08:23:50;;;;;;;5.97;2.05;;;;;;;;;;5039032;28;20022;-73
2023/08/22 08:26:16;;;;;;;7.97;1.95;;;;;;;;;;5038481;28;20033;-74
2023/08/22 08:28:42;;;;;;;6.70;1.92;;;;;;;;;;5035282;28;20029;-74
2023/08/22 08:31:08;;;;;;;9.55;2.22;;;;;;;;;;5035180;28;20022;-74
2023/08/22 08:33:34;;;;;;;8.13;1.85;;;;;;;;;;5034657;28;20487;-74
2023/08/22 08:36:00;;;;;;;4.53;1.83;;;;;;;;;;5034860;28;20108;-74
2023/08/22 08:38:26;;;;;;;7.78;2.10;;;;;;;;;;5035164;28;20030;-74
2023/08/22 08:40:54;;;;;;;10.88;2.00;;;;;;;;;;5035902;28;20021;-74
2023/08/22 08:43:22;;;;;;;4.40;1.83;;;;;;;;;;5036406;28;20033;-75
2023/08/22 08:45:49;;;;;;;5.93;1.75;;;;;;;;;;5036232;28;20079;-76
2023/08/22 08:48:16;;;;;;;15.50;4.40;;;;;;;;;;5037408;28;20029;-74
2023/08/22 08:50:42;;;;;;;8.65;1.92;;;;;;;;;;5042479;28;20116;-75
2023/08/22 08:53:09;;;;;;;8.10;1.70;;;;;;;;;;5043696;28;20404;-75
2023/08/22 08:55:35;;;;;;;7.97;1.63;;;;;;;;;;5047278;28;20025;-74
2023/08/22 08:58:03;;;;;;;8.55;2.30;;;;;;;;;;5051515;28;20115;-74
2023/08/22 09:00:31;;;;;;;7.32;2.30;;;;;;;;;;5053998;28;20532;-77
2023/08/22 09:02:57;;;;;;;10.50;2.10;;;;;;;;;;5036393;28;20060;-74
2023/08/22 09:05:23;;;;;;;9.15;2.05;;;;;;;;;;5034606;28;20029;-79
2023/08/22 09:07:49;;;;;;;10.23;1.98;;;;;;;;;;5035024;28;20039;-82
2023/08/22 09:10:32;;;;;;;11.60;2.58;;;;;;;;;;5036540;28;20076;-76
2023/08/22 09:13:02;;;;;;;4.35;1.80;;;;;;;;;;5034801;28;20017;-74
2023/08/22 09:15:28;;;;;;;7.43;2.08;;;;;;;;;;5034714;28;20128;-76
2023/08/22 09:17:57;;;;;;;9.35;2.03;;;;;;;;;;5034175;28;20029;-76
2023/08/22 09:20:24;;;;;;;7.25;2.05;;;;;;;;;;5034422;28;20483;-77
2023/08/22 09:22:50;;;;;;;8.38;2.53;;;;;;;;;;5033642;28;20498;-76
2023/08/22 09:25:17;;;;;;;10.07;2.42;;;;;;;;;;5034114;28;20399;-76
2023/08/22 09:27:43;;;;;;;12.68;2.25;;;;;;;;;;5034194;28;20506;-76
2023/08/22 09:30:12;;;;;;;8.75;2.22;;;;;;;;;;5034612;28;20050;-75
2023/08/22 09:32:38;;;;;;;11.70;2.08;;;;;;;;;;5034644;28;20120;-74
2023/08/22 09:35:04;;;;;;;5.55;1.85;;;;;;;;;;5034404;28;20044;-74
2023/08/22 09:37:31;;;;;;;8.75;2.25;;;;;;;;;;5033825;28;20029;-75
2023/08/22 09:39:57;;;;;;;10.13;2.40;;;;;;;;;;5034271;28;20104;-73
2023/08/22 09:42:29;;;;;;;10.80;2.45;;;;;;;;;;5034503;28;20032;-75
2023/08/22 09:44:59;;;;;;;12.77;2.42;;;;;;;;;;5034073;28;20480;-76
2023/08/22 09:47:38;;;;;;;12.68;2.40;;;;;;;;;;5034053;28;20418;-74
2023/08/22 09:50:07;;;;;;;10.35;2.40;;;;;;;;;;5033850;28;20480;-73
2023/08/22 09:52:37;;;;;;;7.13;2.08;;;;;;;;;;5033786;28;20428;-74
2023/08/22 09:55:03;;;;;;;8.32;2.50;;;;;;;;;;5034421;28;20037;-73
2023/08/22 09:57:30;;;;;;;6.65;1.80;;;;;;;;;;5034662;28;20033;-75
2023/08/22 09:59:58;;;;;;;12.00;2.58;;;;;;;;;;5033321;28;20025;-74
2023/08/22 10:02:24;;;;;;;7.95;2.30;;;;;;;;;;5033111;28;20372;-73
2023/08/22 10:04:50;;;;;;;7.07;1.80;;;;;;;;;;5032962;28;20378;-75
2023/08/22 10:07:16;;;;;;;8.35;2.35;;;;;;;;;;5033055;28;20022;-76
2023/08/22 10:09:42;;;;;;;9.35;2.53;;;;;;;;;;5033287;28;20557;-73
2023/08/22 10:12:15;;;;;;;9.80;2.50;;;;;;;;;;5032947;28;20025;-75
2023/08/22 10:14:45;;;;;;;14.23;2.65;;;;;;;;;;5031353;28;20072;-74
2023/08/22 10:17:11;;;;;;;10.85;1.95;;;;;;;;;;5032961;28;20071;-74
2023/08/22 10:19:38;;;;;;;8.80;2.78;;;;;;;;;;5033934;28;20025;-75
2023/08/22 10:22:14;;;;;;;6.15;2.72;;;;;;;;;;5032722;28;20112;-76
2023/08/22 10:24:41;;;;;;;7.13;2.20;;;;;;;;;;5032443;28;20151;-74
2023/08/22 10:27:16;;;;;;;8.18;3.10;;;;;;;;;;5032812;28;20109;-74
2023/08/22 10:29:45;;;;;;;12.35;2.60;;;;;;;;;;5033623;28;20036;-75
2023/08/22 10:32:11;;;;;;;6.82;1.92;;;;;;;;;;5032295;28;20025;-73
2023/08/22 10:34:37;;;;;;;5.97;2.60;;;;;;;;;;5032583;28;20091;-74
2023/08/22 10:37:03;;;;;;;7.10;2.20;;;;;;;;;;5032890;28;20029;-74
2023/08/22 10:39:39;;;;;;;8.80;2.70;;;;;;;;;;5032887;28;20025;-74
2023/08/22 10:42:05;;;;;;;7.00;2.92;;;;;;;;;;5032559;28;20025;-73
2023/08/22 10:44:31;;;;;;;9.07;2.90;;;;;;;;;;5039210;28;20123;-74
2023/08/22 10:47:04;;;;;;;5.72;1.92;;;;;;;;;;5037022;28;20033;-74
2023/08/22 10:49:31;;;;;;;6.13;2.03;;;;;;;;;;5041800;28;20022;-73
2023/08/22 10:52:10;;;;;;;12.00;2.60;;;;;;;;;;5035779;28;20376;-73
2023/08/22 10:54:55;;;;;;;9.15;2.55;;;;;;;;;;5033157;28;20559;-73
2023/08/22 10:57:21;;;;;;;7.60;2.85;;;;;;;;;;5032842;28;20033;-74
2023/08/22 10:59:54;;;;;;;10.30;2.80;;;;;;;;;;5032916;28;20502;-73
2023/08/22 11:02:20;;;;;;;7.45;2.50;;;;;;;;;;5033988;28;20037;-76
2023/08/22 11:04:47;;;;;;;14.88;3.13;;;;;;;;;;5033534;28;20036;-75
2023/08/22 11:07:14;;;;;;;14.80;3.17;;;;;;;;;;5032006;28;20036;-74
2023/08/22 11:09:40;;;;;;;10.18;3.33;;;;;;;;;;5032061;28;20111;-74
2023/08/22 11:12:26;;;;;;;20.17;3.15;;;;;;;;;;5031782;28;20033;-74
2023/08/22 11:14:53;;;;;;;10.82;2.78;;;;;;;;;;5031805;28;20065;-74
2023/08/22 11:17:22;;;;;;;15.38;2.83;;;;;;;;;;5032030;28;20037;-73
2023/08/22 11:19:49;;;;;;;11.07;2.45;;;;;;;;;;5031821;28;20037;-73
2023/08/22 11:22:15;;;;;;;12.70;3.53;;;;;;;;;;5032781;28;20491;-75
2023/08/22 11:24:51;;;;;;;15.77;2.90;;;;;;;;;;5034623;28;20026;-75
2023/08/22 11:27:18;;;;;;;9.43;2.75;;;;;;;;;;5034758;28;20395;-74
2023/08/22 11:29:46;;;;;;;11.75;3.08;;;;;;;;;;5038732;28;20513;-74
2023/08/22 11:32:22;;;;;;;7.55;2.17;;;;;;;;;;5037137;28;20013;-75
2023/08/22 11:34:51;;;;;;;8.77;2.53;;;;;;;;;;5034831;28;20032;-75
2023/08/22 11:37:18;;;;;;;9.75;2.58;;;;;;;;;;5033332;28;20036;-75
2023/08/22 11:39:50;;;;;;;7.22;2.42;;;;;;;;;;5031923;28;20060;-74
2023/08/22 11:42:17;;;;;;;13.65;2.60;;;;;;;;;;5030888;28;20057;-75
2023/08/22 11:44:52;;;;;;;10.55;2.58;;;;;;;;;;5031901;28;20029;-74
2023/08/22 11:47:18;;;;;;;7.07;1.90;;;;;;;;;;5031827;28;20055;-75
2023/08/22 11:49:44;;;;;;;10.43;2.17;;;;;;;;;;5031902;28;20426;-74
2023/08/22 11:52:10;;;;;;;16.65;2.95;;;;;;;;;;5031570;28;20029;-74
2023/08/22 11:54:45;;;;;;;11.95;2.20;;;;;;;;;;5032185;28;20044;-75
2023/08/22 11:57:12;;;;;;;14.65;2.70;;;;;;;;;;5031375;28;20072;-75
2023/08/22 11:59:42;;;;;;;12.23;2.05;;;;;;;;;;5031520;28;20045;-74
2023/08/22 12:02:10;;;;;;;10.05;2.25;;;;;;;;;;5031474;28;20447;-73
2023/08/22 12:04:42;;;;;;;9.02;2.25;;;;;;;;;;5031449;28;20022;-75
2023/08/22 12:07:09;;;;;;;8.07;2.08;;;;;;;;;;5031355;28;20501;-75
2023/08/22 12:09:35;;;;;;;11.25;2.33;;;;;;;;;;5031172;28;20048;-74
2023/08/22 12:12:10;;;;;;;11.20;2.20;;;;;;;;;;5031176;28;20459;-75
2023/08/22 12:14:36;;;;;;;10.68;1.90;;;;;;;;;;5031202;28;20309;-75
2023/08/22 12:17:02;;;;;;;7.85;1.90;;;;;;;;;;5031288;28;20039;-75
2023/08/22 12:19:28;;;;;;;7.82;2.20;;;;;;;;;;5031609;28;20061;-73
2023/08/22 12:21:54;;;;;;;9.15;2.45;;;;;;;;;;5031409;28;20080;-74
2023/08/22 12:24:20;;;;;;;8.15;1.80;;;;;;;;;;5039614;28;20037;-75
2023/08/22 12:26:46;;;;;;;9.45;2.00;;;;;;;;;;5045106;28;20037;-76
2023/08/22 12:29:12;;;;;;;5.68;1.60;;;;;;;;;;5041754;28;20052;-78
2023/08/22 12:31:38;;;;;;;7.38;1.70;;;;;;;;;;5040135;28;20113;-79
2023/08/22 12:34:04;;;;;;;7.03;1.20;;;;;;;;;;5042195;28;20053;-79
2023/08/22 12:36:30;;;;;;;5.28;1.30;;;;;;;;;;5039345;28;20100;-79
2023/08/22 12:38:56;;;;;;;5.82;1.35;;;;;;;;;;5037547;28;20056;-79
2023/08/22 12:41:22;;;;;;;4.93;1.88;;;;;;;;;;5035286;28;20100;-75
2023/08/22 12:43:48;;;;;;;10.35;1.90;;;;;;;;;;5032783;28;20026;-76
2023/08/22 12:46:14;;;;;;;7.95;1.30;;;;;;;;;;5035990;28;20030;-76
2023/08/22 12:48:40;;;;;;;5.95;1.40;;;;;;;;;;5035760;28;20025;-76
2023/08/22 12:51:06;;;;;;;7.55;1.85;;;;;;;;;;5034009;28;20475;-75
2023/08/22 12:53:32;;;;;;;5.72;1.30;;;;;;;;;;5035586;28;20051;-75
2023/08/22 12:55:58;;;;;;;7.13;1.90;;;;;;;;;;5033898;28;20112;-74
2023/08/22 12:58:25;;;;;;;5.65;1.45;;;;;;;;;;5032925;28;20099;-76
2023/08/22 13:00:52;;;;;;;7.53;1.55;;;;;;;;;;5036491;28;20029;-75
2023/08/22 13:03:18;;;;;;;7.18;1.67;;;;;;;;;;5033400;28;20037;-75
2023/08/22 13:05:43;;;;;;;6.15;1.20;;;;;;;;;;5039164;28;20029;-75
2023/08/22 13:08:09;;;;;;;6.10;1.40;;;;;;;;;;5039253;28;20029;-75
2023/08/22 13:10:35;;;;;;;7.05;1.90;;;;;;;;;;5036761;28;20033;-77
2023/08/22 13:13:02;;;;;;;5.85;1.50;;;;;;;;;;5037499;28;20072;-75
2023/08/22 13:15:28;;;;;;;6.90;1.40;;;;;;;;;;5038082;28;20033;-74
2023/08/22 13:17:54;;;;;;;7.18;1.63;;;;;;;;;;5035829;28;20028;-75
2023/08/22 13:20:21;;;;;;;5.18;2.08;;;;;;;;;;5032517;28;20449;-75
2023/08/22 13:22:47;;;;;;;10.70;1.90;;;;;;;;;;5033133;28;20071;-75
2023/08/22 13:25:13;;;;;;;7.53;1.60;;;;;;;;;;5034058;28;20017;-74
2023/08/22 13:27:39;;;;;;;8.40;1.77;;;;;;;;;;5032764;28;20541;-75
2023/08/22 13:30:06;;;;;;;7.38;1.63;;;;;;;;;;5033477;28;20022;-76
2023/08/22 13:32:32;;;;;;;6.72;1.50;;;;;;;;;;5033139;28;20025;-75
2023/08/22 13:34:58;;;;;;;4.38;1.15;;;;;;;;;;5034130;28;20041;-75
2023/08/22 13:37:25;;;;;;;7.20;1.70;;;;;;;;;;5032208;28;20521;-75
2023/08/22 13:39:51;;;;;;;4.30;1.45;;;;;;;;;;5033844;28;20633;-75
2023/08/22 13:42:17;;;;;;;5.10;1.20;;;;;;;;;;5033128;28;20041;-75
2023/08/22 13:44:44;;;;;;;6.72;1.60;;;;;;;;;;5031997;28;20026;-74
2023/08/22 13:47:09;;;;;;;4.40;1.17;;;;;;;;;;5033335;28;20025;-76
2023/08/22 13:49:36;;;;;;;4.35;1.40;;;;;;;;;;5033625;28;20072;-74
2023/08/22 13:52:02;;;;;;;5.38;1.55;;;;;;;;;;5032621;28;20419;-75
2023/08/22 13:54:28;;;;;;;6.13;1.80;;;;;;;;;;5032309;28;20104;-75
2023/08/22 13:56:54;;;;;;;7.97;1.30;;;;;;;;;;5032795;28;20029;-75
2023/08/22 13:59:19;;;;;;;8.85;3.08;;;;;;;;;;5034404;28;20025;-76
2023/08/22 14:01:47;;;;;;;4.93;1.42;;;;;;;;;;5033634;28;20543;-76
2023/08/22 14:04:13;;;;;;;5.57;1.48;;;;;;;;;;5033608;28;20104;-75
2023/08/22 14:06:39;;;;;;;3.10;1.10;;;;;;;;;;5033412;28;20022;-75
2023/08/22 14:09:05;;;;;;;5.60;1.60;;;;;;;;;;5031630;28;20024;-76
2023/08/22 14:11:31;;;;;;;6.65;1.58;;;;;;;;;;5031722;28;20116;-75
2023/08/22 14:13:57;;;;;;;7.03;1.80;;;;;;;;;;5031775;28;20025;-75
2023/08/22 14:16:23;;;;;;;4.35;1.40;;;;;;;;;;5033045;28;20364;-75
2023/08/22 14:18:49;;;;;;;5.55;1.48;;;;;;;;;;5033222;28;20025;-75
2023/08/22 14:21:15;;;;;;;6.80;1.60;;;;;;;;;;5032512;28;20089;-73
2023/08/22 14:23:41;;;;;;;6.43;1.77;;;;;;;;;;5031739;28;20021;-75
2023/08/22 14:26:07;;;;;;;7.40;1.92;;;;;;;;;;5032966;28;20037;-74
2023/08/22 14:28:33;;;;;;;7.57;1.58;;;;;;;;;;5031391;28;20026;-75
2023/08/22 14:31:02;;;;;;;8.82;1.40;;;;;;;;;;5032201;28;20379;-74
2023/08/22 14:33:28;;;;;;;6.18;1.42;;;;;;;;;;5028604;28;20155;-76